Ust'- Kut, Russia
Current Conditions -  °F | °C
As of 12:00 PM on Tuesday 21 Oct 2014 (Local Time) from UIBB Reporting Station
Overcast Overcast  
Wind Chill: 19°   Ceiling: 10000
Heat Index: 28°   Visibility: 6mi
Dew Point: 18°   Wind: 11mph
Humidity: 64%   Direction: 140°SE
Pressure: 29.8"   Gusts: NA
Location:  56.77°N, 105.65°E
Report Text: UIBB 210400Z 14005MPS 9999 OVC100 M02/M08 Q1009 NOSIG RMKQFE714/0952 30CLRD60
Loading
Personal Weather Stations






























Interactive Weather Map
Tropical Storm Tracking
New forecast layout! Learn more

10-Day Weather Forecast

Advertisements
Track Severe Weather on mobile